Clifton, Illinois
Current Conditions -  °F | °C
As of 8:15 AM on Thursday 29 Jan 2015 (Local Time) from KIKK Reporting Station
Overcast Overcast  
Wind Chill: 27°   Ceiling: 2000
Heat Index: 36°   Visibility: 10mi
Dew Point: 32°   Wind: 13mph
Humidity: 87%   Direction: 300°WNW
Pressure: 29.78"   Gusts: 21mph
Location:  40.94°N, 87.93°W
Report Text: KIKK 291415Z AUTO 30011G18KT 10SM OVC020 02/00 A2978 RMK AO2 T00200000
Loading
Personal Weather Stations






























Interactive Weather Map New forecast layout! Learn more

10-Day Weather Forecast

Advertisements
Track Severe Weather on mobile